sensor_id;sensor_type;location;lat;lon;timestamp;P1;durP1;ratioP1;P2;durP2;ratioP2
46845;SDS011;33947;46.804;134.252;2023-01-05T00:00:48;152.02;;;56.20;;
46845;SDS011;33947;46.804;134.252;2023-01-05T00:03:52;79.28;;;24.08;;
46845;SDS011;33947;46.804;134.252;2023-01-05T00:06:57;63.90;;;29.98;;
46845;SDS011;33947;46.804;134.252;2023-01-05T00:10:01;148.10;;;43.55;;
46845;SDS011;33947;46.804;134.252;2023-01-05T00:13:05;43.10;;;22.38;;
46845;SDS011;33947;46.804;134.252;2023-01-05T00:16:29;78.93;;;30.83;;
46845;SDS011;33947;46.804;134.252;2023-01-05T00:19:52;89.60;;;25.52;;
46845;SDS011;33947;46.804;134.252;2023-01-05T00:23:16;34.45;;;14.68;;
46845;SDS011;33947;46.804;134.252;2023-01-05T00:26:21;77.82;;;28.95;;
46845;SDS011;33947;46.804;134.252;2023-01-05T00:29:25;36.00;;;18.38;;
46845;SDS011;33947;46.804;134.252;2023-01-05T00:32:29;145.25;;;41.80;;
46845;SDS011;33947;46.804;134.252;2023-01-05T00:35:34;136.48;;;49.38;;
46845;SDS011;33947;46.804;134.252;2023-01-05T00:38:37;253.38;;;92.57;;
46845;SDS011;33947;46.804;134.252;2023-01-05T00:41:41;122.25;;;39.92;;
46845;SDS011;33947;46.804;134.252;2023-01-05T00:44:45;84.95;;;29.80;;
46845;SDS011;33947;46.804;134.252;2023-01-05T00:47:50;111.83;;;32.97;;
46845;SDS011;33947;46.804;134.252;2023-01-05T00:50:55;85.72;;;26.25;;
46845;SDS011;33947;46.804;134.252;2023-01-05T00:54:00;80.78;;;26.65;;
46845;SDS011;33947;46.804;134.252;2023-01-05T00:57:04;66.70;;;24.25;;
46845;SDS011;33947;46.804;134.252;2023-01-05T01:00:12;61.45;;;21.73;;
46845;SDS011;33947;46.804;134.252;2023-01-05T01:03:19;34.08;;;14.75;;
46845;SDS011;33947;46.804;134.252;2023-01-05T01:06:23;23.47;;;11.10;;
46845;SDS011;33947;46.804;134.252;2023-01-05T01:09:28;19.33;;;9.57;;
46845;SDS011;33947;46.804;134.252;2023-01-05T01:12:33;27.67;;;13.05;;
46845;SDS011;33947;46.804;134.252;2023-01-05T01:15:37;30.85;;;12.88;;
46845;SDS011;33947;46.804;134.252;2023-01-05T01:18:45;33.35;;;14.50;;
46845;SDS011;33947;46.804;134.252;2023-01-05T01:21:49;35.72;;;12.23;;
46845;SDS011;33947;46.804;134.252;2023-01-05T01:24:54;22.88;;;11.25;;
46845;SDS011;33947;46.804;134.252;2023-01-05T01:27:59;25.13;;;11.00;;
46845;SDS011;33947;46.804;134.252;2023-01-05T01:31:04;32.50;;;16.35;;
46845;SDS011;33947;46.804;134.252;2023-01-05T01:34:09;36.50;;;14.23;;
46845;SDS011;33947;46.804;134.252;2023-01-05T01:37:15;36.20;;;14.93;;
46845;SDS011;33947;46.804;134.252;2023-01-05T01:40:24;52.78;;;18.90;;
46845;SDS011;33947;46.804;134.252;2023-01-05T01:43:42;45.97;;;14.45;;
46845;SDS011;33947;46.804;134.252;2023-01-05T01:46:48;38.35;;;16.02;;
46845;SDS011;33947;46.804;134.252;2023-01-05T01:49:53;35.33;;;15.50;;
46845;SDS011;33947;46.804;134.252;2023-01-05T01:53:02;23.33;;;12.95;;
46845;SDS011;33947;46.804;134.252;2023-01-05T01:56:29;25.88;;;11.40;;
46845;SDS011;33947;46.804;134.252;2023-01-05T01:59:39;27.95;;;12.68;;
46845;SDS011;33947;46.804;134.252;2023-01-05T02:02:48;25.15;;;12.00;;
46845;SDS011;33947;46.804;134.252;2023-01-05T02:05:57;32.10;;;14.45;;
46845;SDS011;33947;46.804;134.252;2023-01-05T02:09:03;33.78;;;15.02;;
46845;SDS011;33947;46.804;134.252;2023-01-05T02:12:17;20.42;;;9.85;;
46845;SDS011;33947;46.804;134.252;2023-01-05T02:42:14;31.20;;;15.05;;
46845;SDS011;33947;46.804;134.252;2023-01-05T02:45:23;23.95;;;11.50;;
46845;SDS011;33947;46.804;134.252;2023-01-05T02:48:32;12.57;;;7.03;;
46845;SDS011;33947;46.804;134.252;2023-01-05T02:51:38;27.65;;;10.15;;
46845;SDS011;33947;46.804;134.252;2023-01-05T02:54:48;25.17;;;11.55;;
46845;SDS011;33947;46.804;134.252;2023-01-05T02:58:02;22.60;;;12.43;;
46845;SDS011;33947;46.804;134.252;2023-01-05T03:01:26;22.88;;;11.55;;
46845;SDS011;33947;46.804;134.252;2023-01-05T03:04:57;21.08;;;9.43;;
46845;SDS011;33947;46.804;134.252;2023-01-05T03:08:11;24.02;;;10.15;;
46845;SDS011;33947;46.804;134.252;2023-01-05T03:11:37;27.42;;;12.57;;
46845;SDS011;33947;46.804;134.252;2023-01-05T03:15:07;24.20;;;11.88;;
46845;SDS011;33947;46.804;134.252;2023-01-05T03:18:17;24.75;;;9.00;;
46845;SDS011;33947;46.804;134.252;2023-01-05T03:21:26;18.88;;;8.40;;
46845;SDS011;33947;46.804;134.252;2023-01-05T03:24:34;24.80;;;11.23;;
46845;SDS011;33947;46.804;134.252;2023-01-05T03:27:59;19.80;;;8.63;;
46845;SDS011;33947;46.804;134.252;2023-01-05T03:31:27;28.40;;;12.85;;
46845;SDS011;33947;46.804;134.252;2023-01-05T03:38:21;27.35;;;12.25;;
46845;SDS011;33947;46.804;134.252;2023-01-05T03:41:35;29.45;;;11.30;;
46845;SDS011;33947;46.804;134.252;2023-01-05T03:44:43;31.90;;;12.48;;
46845;SDS011;33947;46.804;134.252;2023-01-05T03:47:50;35.55;;;15.70;;
46845;SDS011;33947;46.804;134.252;2023-01-05T03:50:59;24.45;;;13.95;;
46845;SDS011;33947;46.804;134.252;2023-01-05T03:54:05;27.80;;;11.88;;
46845;SDS011;33947;46.804;134.252;2023-01-05T03:57:10;24.33;;;10.57;;
46845;SDS011;33947;46.804;134.252;2023-01-05T04:00:16;23.60;;;9.18;;
46845;SDS011;33947;46.804;134.252;2023-01-05T04:03:29;25.50;;;12.52;;
46845;SDS011;33947;46.804;134.252;2023-01-05T04:06:37;24.98;;;11.63;;
46845;SDS011;33947;46.804;134.252;2023-01-05T04:09:43;24.50;;;10.55;;
46845;SDS011;33947;46.804;134.252;2023-01-05T04:12:48;31.33;;;10.83;;
46845;SDS011;33947;46.804;134.252;2023-01-05T04:15:53;21.83;;;10.13;;
46845;SDS011;33947;46.804;134.252;2023-01-05T04:18:58;22.15;;;11.00;;
46845;SDS011;33947;46.804;134.252;2023-01-05T04:22:01;29.77;;;11.90;;
46845;SDS011;33947;46.804;134.252;2023-01-05T04:28:13;21.90;;;9.98;;
46845;SDS011;33947;46.804;134.252;2023-01-05T04:31:18;21.58;;;8.85;;
46845;SDS011;33947;46.804;134.252;2023-01-05T04:34:25;19.17;;;8.88;;
46845;SDS011;33947;46.804;134.252;2023-01-05T04:37:31;17.65;;;7.47;;
46845;SDS011;33947;46.804;134.252;2023-01-05T04:40:37;26.17;;;10.13;;
46845;SDS011;33947;46.804;134.252;2023-01-05T04:43:42;27.60;;;11.40;;
46845;SDS011;33947;46.804;134.252;2023-01-05T04:46:48;20.67;;;9.00;;
46845;SDS011;33947;46.804;134.252;2023-01-05T04:49:53;26.38;;;11.00;;
46845;SDS011;33947;46.804;134.252;2023-01-05T04:52:58;24.58;;;9.32;;
46845;SDS011;33947;46.804;134.252;2023-01-05T04:56:04;25.13;;;11.27;;
46845;SDS011;33947;46.804;134.252;2023-01-05T04:59:13;28.42;;;12.50;;
46845;SDS011;33947;46.804;134.252;2023-01-05T05:02:18;35.65;;;12.10;;
46845;SDS011;33947;46.804;134.252;2023-01-05T05:05:25;25.20;;;10.43;;
46845;SDS011;33947;46.804;134.252;2023-01-05T05:08:31;23.80;;;10.02;;
46845;SDS011;33947;46.804;134.252;2023-01-05T05:11:37;31.90;;;13.02;;
46845;SDS011;33947;46.804;134.252;2023-01-05T05:14:43;23.67;;;10.30;;
46845;SDS011;33947;46.804;134.252;2023-01-05T05:17:49;25.40;;;10.90;;
46845;SDS011;33947;46.804;134.252;2023-01-05T05:20:53;30.30;;;11.23;;
46845;SDS011;33947;46.804;134.252;2023-01-05T05:24:02;25.50;;;11.02;;
46845;SDS011;33947;46.804;134.252;2023-01-05T05:27:12;24.02;;;9.30;;
46845;SDS011;33947;46.804;134.252;2023-01-05T05:30:16;25.27;;;11.38;;
46845;SDS011;33947;46.804;134.252;2023-01-05T05:33:22;29.27;;;13.37;;
46845;SDS011;33947;46.804;134.252;2023-01-05T05:36:27;30.15;;;13.55;;
46845;SDS011;33947;46.804;134.252;2023-01-05T05:39:32;24.00;;;11.85;;
46845;SDS011;33947;46.804;134.252;2023-01-05T05:42:36;25.35;;;10.82;;
46845;SDS011;33947;46.804;134.252;2023-01-05T05:45:41;28.57;;;12.20;;
46845;SDS011;33947;46.804;134.252;2023-01-05T05:48:52;22.15;;;10.40;;
46845;SDS011;33947;46.804;134.252;2023-01-05T05:51:57;26.58;;;11.15;;
46845;SDS011;33947;46.804;134.252;2023-01-05T05:55:03;20.80;;;10.88;;
46845;SDS011;33947;46.804;134.252;2023-01-05T05:58:08;19.40;;;8.90;;
46845;SDS011;33947;46.804;134.252;2023-01-05T06:01:12;25.02;;;10.15;;
46845;SDS011;33947;46.804;134.252;2023-01-05T06:04:17;24.42;;;9.25;;
46845;SDS011;33947;46.804;134.252;2023-01-05T06:10:26;14.07;;;6.78;;
46845;SDS011;33947;46.804;134.252;2023-01-05T06:13:30;30.37;;;11.63;;
46845;SDS011;33947;46.804;134.252;2023-01-05T06:16:35;23.10;;;10.68;;
46845;SDS011;33947;46.804;134.252;2023-01-05T06:19:39;34.10;;;13.98;;
46845;SDS011;33947;46.804;134.252;2023-01-05T06:22:44;32.10;;;13.63;;
46845;SDS011;33947;46.804;134.252;2023-01-05T06:25:48;22.67;;;10.00;;
46845;SDS011;33947;46.804;134.252;2023-01-05T06:28:52;21.88;;;10.55;;
46845;SDS011;33947;46.804;134.252;2023-01-05T06:31:57;23.65;;;10.57;;
46845;SDS011;33947;46.804;134.252;2023-01-05T06:35:01;25.88;;;11.52;;
46845;SDS011;33947;46.804;134.252;2023-01-05T06:38:06;16.48;;;7.35;;
46845;SDS011;33947;46.804;134.252;2023-01-05T06:41:10;28.25;;;9.68;;
46845;SDS011;33947;46.804;134.252;2023-01-05T06:44:14;33.22;;;11.77;;
46845;SDS011;33947;46.804;134.252;2023-01-05T06:47:19;28.25;;;13.32;;
46845;SDS011;33947;46.804;134.252;2023-01-05T06:50:24;30.10;;;13.23;;
46845;SDS011;33947;46.804;134.252;2023-01-05T06:53:29;27.48;;;11.90;;
46845;SDS011;33947;46.804;134.252;2023-01-05T06:56:33;35.17;;;13.00;;
46845;SDS011;33947;46.804;134.252;2023-01-05T06:59:38;54.47;;;18.00;;
46845;SDS011;33947;46.804;134.252;2023-01-05T07:02:42;22.83;;;9.77;;
46845;SDS011;33947;46.804;134.252;2023-01-05T07:05:46;38.05;;;16.52;;
46845;SDS011;33947;46.804;134.252;2023-01-05T07:08:50;32.42;;;11.38;;
46845;SDS011;33947;46.804;134.252;2023-01-05T07:11:55;24.98;;;11.80;;
46845;SDS011;33947;46.804;134.252;2023-01-05T07:14:59;33.92;;;14.40;;
46845;SDS011;33947;46.804;134.252;2023-01-05T07:18:04;44.55;;;20.50;;
46845;SDS011;33947;46.804;134.252;2023-01-05T07:21:08;39.38;;;15.95;;
46845;SDS011;33947;46.804;134.252;2023-01-05T07:24:12;78.82;;;29.40;;
46845;SDS011;33947;46.804;134.252;2023-01-05T07:27:16;390.33;;;110.38;;
46845;SDS011;33947;46.804;134.252;2023-01-05T07:30:21;441.80;;;125.15;;
46845;SDS011;33947;46.804;134.252;2023-01-05T07:33:26;243.02;;;87.75;;
46845;SDS011;33947;46.804;134.252;2023-01-05T07:36:30;94.85;;;37.28;;
46845;SDS011;33947;46.804;134.252;2023-01-05T07:39:36;49.30;;;22.60;;
46845;SDS011;33947;46.804;134.252;2023-01-05T07:42:40;36.28;;;13.75;;
46845;SDS011;33947;46.804;134.252;2023-01-05T07:45:45;39.88;;;17.00;;
46845;SDS011;33947;46.804;134.252;2023-01-05T07:51:54;28.73;;;11.57;;
46845;SDS011;33947;46.804;134.252;2023-01-05T07:54:58;61.30;;;26.55;;
46845;SDS011;33947;46.804;134.252;2023-01-05T08:01:09;26.92;;;12.80;;
46845;SDS011;33947;46.804;134.252;2023-01-05T08:04:15;20.80;;;9.23;;
46845;SDS011;33947;46.804;134.252;2023-01-05T08:07:19;35.03;;;15.97;;
46845;SDS011;33947;46.804;134.252;2023-01-05T08:10:24;29.23;;;13.95;;
46845;SDS011;33947;46.804;134.252;2023-01-05T08:13:31;31.00;;;16.00;;
46845;SDS011;33947;46.804;134.252;2023-01-05T08:16:54;38.28;;;13.68;;
46845;SDS011;33947;46.804;134.252;2023-01-05T08:19:59;59.38;;;24.35;;
46845;SDS011;33947;46.804;134.252;2023-01-05T08:23:04;80.35;;;27.40;;
46845;SDS011;33947;46.804;134.252;2023-01-05T08:26:12;51.70;;;19.20;;
46845;SDS011;33947;46.804;134.252;2023-01-05T08:29:18;54.88;;;19.48;;
46845;SDS011;33947;46.804;134.252;2023-01-05T08:32:23;47.67;;;18.75;;
46845;SDS011;33947;46.804;134.252;2023-01-05T08:35:27;55.05;;;20.20;;
46845;SDS011;33947;46.804;134.252;2023-01-05T08:38:31;35.45;;;13.70;;
46845;SDS011;33947;46.804;134.252;2023-01-05T08:41:36;36.70;;;14.18;;
46845;SDS011;33947;46.804;134.252;2023-01-05T08:44:42;29.60;;;11.05;;
46845;SDS011;33947;46.804;134.252;2023-01-05T08:47:46;39.78;;;14.32;;
46845;SDS011;33947;46.804;134.252;2023-01-05T08:50:50;62.85;;;21.65;;
46845;SDS011;33947;46.804;134.252;2023-01-05T08:53:55;48.45;;;16.17;;
46845;SDS011;33947;46.804;134.252;2023-01-05T08:57:01;50.58;;;23.00;;
46845;SDS011;33947;46.804;134.252;2023-01-05T09:00:06;46.57;;;16.43;;
46845;SDS011;33947;46.804;134.252;2023-01-05T09:03:10;34.30;;;13.52;;
46845;SDS011;33947;46.804;134.252;2023-01-05T09:06:15;34.08;;;14.68;;
46845;SDS011;33947;46.804;134.252;2023-01-05T09:09:20;44.60;;;22.02;;
46845;SDS011;33947;46.804;134.252;2023-01-05T09:12:26;28.10;;;12.30;;
46845;SDS011;33947;46.804;134.252;2023-01-05T09:15:35;48.70;;;17.63;;
46845;SDS011;33947;46.804;134.252;2023-01-05T09:18:39;37.38;;;14.40;;
46845;SDS011;33947;46.804;134.252;2023-01-05T09:21:44;32.03;;;13.43;;
46845;SDS011;33947;46.804;134.252;2023-01-05T09:24:49;33.60;;;13.95;;
46845;SDS011;33947;46.804;134.252;2023-01-05T09:27:53;37.60;;;15.80;;
46845;SDS011;33947;46.804;134.252;2023-01-05T09:31:04;54.60;;;21.17;;
46845;SDS011;33947;46.804;134.252;2023-01-05T09:34:16;35.03;;;16.80;;
46845;SDS011;33947;46.804;134.252;2023-01-05T09:37:21;52.40;;;22.30;;
46845;SDS011;33947;46.804;134.252;2023-01-05T09:40:26;83.03;;;31.47;;
46845;SDS011;33947;46.804;134.252;2023-01-05T09:43:33;89.95;;;29.50;;
46845;SDS011;33947;46.804;134.252;2023-01-05T09:46:41;71.75;;;27.08;;
46845;SDS011;33947;46.804;134.252;2023-01-05T09:49:49;51.55;;;19.75;;
46845;SDS011;33947;46.804;134.252;2023-01-05T09:56:00;50.08;;;19.92;;
46845;SDS011;33947;46.804;134.252;2023-01-05T09:59:08;152.52;;;50.72;;
46845;SDS011;33947;46.804;134.252;2023-01-05T10:05:32;366.65;;;75.60;;
46845;SDS011;33947;46.804;134.252;2023-01-05T10:08:47;82.35;;;21.02;;
46845;SDS011;33947;46.804;134.252;2023-01-05T10:15:20;82.15;;;24.45;;
46845;SDS011;33947;46.804;134.252;2023-01-05T10:18:25;47.93;;;17.60;;
46845;SDS011;33947;46.804;134.252;2023-01-05T10:29:09;64.82;;;16.17;;
46845;SDS011;33947;46.804;134.252;2023-01-05T10:32:25;78.15;;;22.35;;
46845;SDS011;33947;46.804;134.252;2023-01-05T10:46:02;62.85;;;17.45;;
46845;SDS011;33947;46.804;134.252;2023-01-05T10:49:30;25.95;;;10.68;;
46845;SDS011;33947;46.804;134.252;2023-01-05T10:52:35;26.25;;;9.45;;
46845;SDS011;33947;46.804;134.252;2023-01-05T10:59:06;38.83;;;12.75;;
46845;SDS011;33947;46.804;134.252;2023-01-05T11:02:13;37.65;;;13.48;;
46845;SDS011;33947;46.804;134.252;2023-01-05T11:05:22;104.25;;;29.52;;
46845;SDS011;33947;46.804;134.252;2023-01-05T11:08:29;34.30;;;12.10;;
46845;SDS011;33947;46.804;134.252;2023-01-05T11:11:35;30.77;;;10.73;;
46845;SDS011;33947;46.804;134.252;2023-01-05T11:14:42;38.47;;;14.82;;
46845;SDS011;33947;46.804;134.252;2023-01-05T11:17:59;56.75;;;17.92;;
46845;SDS011;33947;46.804;134.252;2023-01-05T11:24:27;33.63;;;12.57;;
46845;SDS011;33947;46.804;134.252;2023-01-05T11:27:39;92.45;;;31.00;;
46845;SDS011;33947;46.804;134.252;2023-01-05T11:34:16;48.60;;;17.42;;
46845;SDS011;33947;46.804;134.252;2023-01-05T11:37:24;159.63;;;46.53;;
46845;SDS011;33947;46.804;134.252;2023-01-05T11:40:32;75.80;;;24.77;;
46845;SDS011;33947;46.804;134.252;2023-01-05T11:43:38;53.70;;;19.58;;
46845;SDS011;33947;46.804;134.252;2023-01-05T11:46:43;132.70;;;44.50;;
46845;SDS011;33947;46.804;134.252;2023-01-05T11:49:47;157.55;;;47.58;;
46845;SDS011;33947;46.804;134.252;2023-01-05T11:53:00;172.82;;;52.75;;
46845;SDS011;33947;46.804;134.252;2023-01-05T11:59:27;44.45;;;16.77;;
46845;SDS011;33947;46.804;134.252;2023-01-05T12:02:44;112.75;;;39.80;;
46845;SDS011;33947;46.804;134.252;2023-01-05T12:06:16;37.78;;;17.45;;
46845;SDS011;33947;46.804;134.252;2023-01-05T12:17:06;39.13;;;19.80;;
46845;SDS011;33947;46.804;134.252;2023-01-05T12:20:22;69.80;;;20.20;;
46845;SDS011;33947;46.804;134.252;2023-01-05T12:38:53;132.65;;;38.95;;
46845;SDS011;33947;46.804;134.252;2023-01-05T12:48:36;42.20;;;19.02;;
46845;SDS011;33947;46.804;134.252;2023-01-05T12:51:56;40.63;;;16.63;;
46845;SDS011;33947;46.804;134.252;2023-01-05T12:55:16;28.55;;;14.38;;
46845;SDS011;33947;46.804;134.252;2023-01-05T12:58:23;44.45;;;17.10;;
46845;SDS011;33947;46.804;134.252;2023-01-05T13:01:37;58.05;;;22.00;;
46845;SDS011;33947;46.804;134.252;2023-01-05T13:04:48;35.88;;;14.50;;
46845;SDS011;33947;46.804;134.252;2023-01-05T13:08:16;118.03;;;44.00;;
46845;SDS011;33947;46.804;134.252;2023-01-05T13:15:00;41.72;;;16.95;;
46845;SDS011;33947;46.804;134.252;2023-01-05T13:18:17;28.45;;;10.98;;
46845;SDS011;33947;46.804;134.252;2023-01-05T13:21:26;64.65;;;17.52;;
46845;SDS011;33947;46.804;134.252;2023-01-05T13:24:38;47.47;;;14.63;;
46845;SDS011;33947;46.804;134.252;2023-01-05T13:27:52;34.08;;;11.73;;
46845;SDS011;33947;46.804;134.252;2023-01-05T13:31:00;69.90;;;26.23;;
46845;SDS011;33947;46.804;134.252;2023-01-05T13:38:01;165.52;;;52.13;;
46845;SDS011;33947;46.804;134.252;2023-01-05T13:41:26;78.25;;;30.23;;
46845;SDS011;33947;46.804;134.252;2023-01-05T13:55:28;103.85;;;33.40;;
46845;SDS011;33947;46.804;134.252;2023-01-05T13:58:39;48.90;;;23.15;;
46845;SDS011;33947;46.804;134.252;2023-01-05T14:02:03;27.73;;;14.88;;
46845;SDS011;33947;46.804;134.252;2023-01-05T14:05:29;446.95;;;103.55;;
46845;SDS011;33947;46.804;134.252;2023-01-05T14:08:37;81.45;;;27.00;;
46845;SDS011;33947;46.804;134.252;2023-01-05T14:28:47;33.08;;;15.43;;
46845;SDS011;33947;46.804;134.252;2023-01-05T14:31:53;36.60;;;15.73;;
46845;SDS011;33947;46.804;134.252;2023-01-05T14:35:06;22.02;;;11.55;;
46845;SDS011;33947;46.804;134.252;2023-01-05T14:38:22;23.40;;;9.70;;
46845;SDS011;33947;46.804;134.252;2023-01-05T14:41:33;31.92;;;14.82;;
46845;SDS011;33947;46.804;134.252;2023-01-05T14:44:41;27.48;;;11.98;;
46845;SDS011;33947;46.804;134.252;2023-01-05T14:47:53;49.40;;;18.20;;
46845;SDS011;33947;46.804;134.252;2023-01-05T14:58:12;21.00;;;12.35;;
46845;SDS011;33947;46.804;134.252;2023-01-05T15:04:48;56.95;;;18.67;;
46845;SDS011;33947;46.804;134.252;2023-01-05T15:11:33;104.03;;;29.38;;
46845;SDS011;33947;46.804;134.252;2023-01-05T15:32:26;11.77;;;9.23;;
46845;SDS011;33947;46.804;134.252;2023-01-05T15:35:48;31.70;;;14.68;;
46845;SDS011;33947;46.804;134.252;2023-01-05T15:38:56;90.07;;;28.42;;
46845;SDS011;33947;46.804;134.252;2023-01-05T15:42:06;38.90;;;14.55;;
46845;SDS011;33947;46.804;134.252;2023-01-05T15:48:35;38.92;;;16.63;;
46845;SDS011;33947;46.804;134.252;2023-01-05T15:51:51;34.53;;;15.13;;
46845;SDS011;33947;46.804;134.252;2023-01-05T15:54:58;36.80;;;13.63;;
46845;SDS011;33947;46.804;134.252;2023-01-05T15:58:13;56.47;;;22.63;;
46845;SDS011;33947;46.804;134.252;2023-01-05T16:01:18;66.93;;;19.60;;
46845;SDS011;33947;46.804;134.252;2023-01-05T16:04:23;68.30;;;22.95;;
46845;SDS011;33947;46.804;134.252;2023-01-05T16:07:27;48.05;;;20.00;;
46845;SDS011;33947;46.804;134.252;2023-01-05T16:10:36;51.28;;;17.77;;
46845;SDS011;33947;46.804;134.252;2023-01-05T16:17:31;76.63;;;19.42;;
46845;SDS011;33947;46.804;134.252;2023-01-05T16:20:42;22.60;;;13.57;;
46845;SDS011;33947;46.804;134.252;2023-01-05T16:23:55;39.40;;;17.08;;
46845;SDS011;33947;46.804;134.252;2023-01-05T16:27:05;38.88;;;20.63;;
46845;SDS011;33947;46.804;134.252;2023-01-05T16:33:34;31.15;;;14.15;;
46845;SDS011;33947;46.804;134.252;2023-01-05T16:36:56;74.78;;;17.75;;
46845;SDS011;33947;46.804;134.252;2023-01-05T16:40:03;42.88;;;17.30;;
46845;SDS011;33947;46.804;134.252;2023-01-05T16:43:28;65.13;;;22.95;;
46845;SDS011;33947;46.804;134.252;2023-01-05T16:46:40;35.33;;;14.18;;
46845;SDS011;33947;46.804;134.252;2023-01-05T16:49:45;36.90;;;13.45;;
46845;SDS011;33947;46.804;134.252;2023-01-05T16:53:13;31.67;;;16.80;;
46845;SDS011;33947;46.804;134.252;2023-01-05T16:56:21;32.30;;;15.38;;
46845;SDS011;33947;46.804;134.252;2023-01-05T16:59:55;28.98;;;13.23;;
46845;SDS011;33947;46.804;134.252;2023-01-05T17:03:46;189.45;;;49.85;;
46845;SDS011;33947;46.804;134.252;2023-01-05T17:06:33;58.20;;;21.35;;
46845;SDS011;33947;46.804;134.252;2023-01-05T17:09:38;58.90;;;25.00;;
46845;SDS011;33947;46.804;134.252;2023-01-05T17:12:48;51.55;;;21.02;;
46845;SDS011;33947;46.804;134.252;2023-01-05T17:16:13;49.25;;;18.70;;
46845;SDS011;33947;46.804;134.252;2023-01-05T17:19:19;44.30;;;20.30;;
46845;SDS011;33947;46.804;134.252;2023-01-05T17:22:23;18.30;;;14.98;;
46845;SDS011;33947;46.804;134.252;2023-01-05T17:25:31;47.03;;;24.20;;
46845;SDS011;33947;46.804;134.252;2023-01-05T17:28:36;78.10;;;21.80;;
46845;SDS011;33947;46.804;134.252;2023-01-05T17:31:45;111.88;;;40.92;;
46845;SDS011;33947;46.804;134.252;2023-01-05T17:34:50;87.00;;;28.90;;
46845;SDS011;33947;46.804;134.252;2023-01-05T17:37:57;93.97;;;29.42;;
46845;SDS011;33947;46.804;134.252;2023-01-05T17:41:01;48.58;;;17.70;;
46845;SDS011;33947;46.804;134.252;2023-01-05T17:44:11;33.17;;;19.40;;
46845;SDS011;33947;46.804;134.252;2023-01-05T17:47:18;52.17;;;22.85;;
46845;SDS011;33947;46.804;134.252;2023-01-05T17:50:27;60.75;;;22.08;;
46845;SDS011;33947;46.804;134.252;2023-01-05T17:53:33;66.25;;;25.48;;
46845;SDS011;33947;46.804;134.252;2023-01-05T17:56:37;131.48;;;33.40;;
46845;SDS011;33947;46.804;134.252;2023-01-05T17:59:44;113.07;;;34.97;;
46845;SDS011;33947;46.804;134.252;2023-01-05T18:02:48;58.17;;;26.20;;
46845;SDS011;33947;46.804;134.252;2023-01-05T18:05:54;105.50;;;26.48;;
46845;SDS011;33947;46.804;134.252;2023-01-05T18:08:58;45.30;;;16.30;;
46845;SDS011;33947;46.804;134.252;2023-01-05T18:12:06;78.60;;;24.27;;
46845;SDS011;33947;46.804;134.252;2023-01-05T18:15:13;73.57;;;25.70;;
46845;SDS011;33947;46.804;134.252;2023-01-05T18:18:21;61.80;;;26.50;;
46845;SDS011;33947;46.804;134.252;2023-01-05T18:21:29;48.83;;;24.05;;
46845;SDS011;33947;46.804;134.252;2023-01-05T18:24:38;87.47;;;32.58;;
46845;SDS011;33947;46.804;134.252;2023-01-05T18:30:46;110.60;;;36.85;;
46845;SDS011;33947;46.804;134.252;2023-01-05T18:33:51;63.25;;;24.73;;
46845;SDS011;33947;46.804;134.252;2023-01-05T18:36:55;23.90;;;14.02;;
46845;SDS011;33947;46.804;134.252;2023-01-05T18:40:08;108.78;;;34.40;;
46845;SDS011;33947;46.804;134.252;2023-01-05T18:43:13;71.80;;;32.28;;
46845;SDS011;33947;46.804;134.252;2023-01-05T18:46:17;74.40;;;28.60;;
46845;SDS011;33947;46.804;134.252;2023-01-05T18:49:22;58.25;;;22.65;;
46845;SDS011;33947;46.804;134.252;2023-01-05T18:52:27;104.88;;;29.15;;
46845;SDS011;33947;46.804;134.252;2023-01-05T18:55:31;30.33;;;20.73;;
46845;SDS011;33947;46.804;134.252;2023-01-05T18:58:36;113.90;;;41.15;;
46845;SDS011;33947;46.804;134.252;2023-01-05T19:01:41;66.90;;;34.42;;
46845;SDS011;33947;46.804;134.252;2023-01-05T19:04:48;61.72;;;29.73;;
46845;SDS011;33947;46.804;134.252;2023-01-05T19:07:54;80.93;;;25.23;;
46845;SDS011;33947;46.804;134.252;2023-01-05T19:11:08;57.63;;;26.13;;
46845;SDS011;33947;46.804;134.252;2023-01-05T19:14:21;58.78;;;31.02;;
46845;SDS011;33947;46.804;134.252;2023-01-05T19:17:28;154.57;;;49.85;;
46845;SDS011;33947;46.804;134.252;2023-01-05T19:20:35;86.32;;;37.08;;
46845;SDS011;33947;46.804;134.252;2023-01-05T19:23:40;346.83;;;112.53;;
46845;SDS011;33947;46.804;134.252;2023-01-05T19:26:44;142.73;;;50.63;;
46845;SDS011;33947;46.804;134.252;2023-01-05T19:29:50;187.63;;;61.65;;
46845;SDS011;33947;46.804;134.252;2023-01-05T19:32:57;555.47;;;166.63;;
46845;SDS011;33947;46.804;134.252;2023-01-05T19:36:13;169.93;;;61.25;;
46845;SDS011;33947;46.804;134.252;2023-01-05T19:39:19;263.17;;;87.65;;
46845;SDS011;33947;46.804;134.252;2023-01-05T19:42:24;125.03;;;47.88;;
46845;SDS011;33947;46.804;134.252;2023-01-05T19:45:28;142.80;;;56.07;;
46845;SDS011;33947;46.804;134.252;2023-01-05T19:48:34;103.65;;;44.58;;
46845;SDS011;33947;46.804;134.252;2023-01-05T19:51:39;157.98;;;57.08;;
46845;SDS011;33947;46.804;134.252;2023-01-05T19:54:46;131.25;;;57.00;;
46845;SDS011;33947;46.804;134.252;2023-01-05T19:57:51;94.60;;;46.95;;
46845;SDS011;33947;46.804;134.252;2023-01-05T20:00:55;161.65;;;67.57;;
46845;SDS011;33947;46.804;134.252;2023-01-05T20:04:02;75.80;;;38.38;;
46845;SDS011;33947;46.804;134.252;2023-01-05T20:07:10;60.22;;;26.40;;
46845;SDS011;33947;46.804;134.252;2023-01-05T20:10:18;172.30;;;71.32;;
46845;SDS011;33947;46.804;134.252;2023-01-05T20:13:25;115.18;;;55.47;;
46845;SDS011;33947;46.804;134.252;2023-01-05T20:16:29;89.05;;;36.40;;
46845;SDS011;33947;46.804;134.252;2023-01-05T20:19:35;186.40;;;76.32;;
46845;SDS011;33947;46.804;134.252;2023-01-05T20:22:42;104.70;;;47.30;;
46845;SDS011;33947;46.804;134.252;2023-01-05T20:25:46;77.95;;;38.42;;
46845;SDS011;33947;46.804;134.252;2023-01-05T20:28:53;140.85;;;53.88;;
46845;SDS011;33947;46.804;134.252;2023-01-05T20:32:07;63.28;;;30.95;;
46845;SDS011;33947;46.804;134.252;2023-01-05T20:35:16;84.43;;;36.35;;
46845;SDS011;33947;46.804;134.252;2023-01-05T20:38:24;45.78;;;28.40;;
46845;SDS011;33947;46.804;134.252;2023-01-05T20:41:31;93.90;;;34.53;;
46845;SDS011;33947;46.804;134.252;2023-01-05T20:44:39;106.00;;;40.30;;
46845;SDS011;33947;46.804;134.252;2023-01-05T20:47:44;147.77;;;38.88;;
46845;SDS011;33947;46.804;134.252;2023-01-05T20:50:51;60.10;;;29.75;;
46845;SDS011;33947;46.804;134.252;2023-01-05T20:53:56;64.65;;;26.02;;
46845;SDS011;33947;46.804;134.252;2023-01-05T20:57:01;66.55;;;25.98;;
46845;SDS011;33947;46.804;134.252;2023-01-05T21:00:06;65.97;;;25.88;;
46845;SDS011;33947;46.804;134.252;2023-01-05T21:03:14;117.55;;;40.08;;